Portada
METAR-TAF:

METAR-TAF

Aeroports :

Mataram, Indonèsia

latitud: 08-45-29S, longitud: 116-16-35E, altitud: 97 m

Observació

L'informe es va fer fa 36 minuts, a les 15:30 UTC
Vent 4 kt del Oest/Nord-Oest
Temperatura 26°C
Humitat 94%
Pressió 1010 hPa
Visibilitat: 6000 m
Escasses núvols a una alçada de 1500 ft, Cumulonimbus.
Cel ennuvolat a una alçada de 1600 ft

METAR: WADL 201530Z 29004KT 6000 FEW015CB BKN016 26/25 Q1010 NOSIG

Hora: 23:06 (16:06 UTC)

Pronòstic

L'informe es va fer fa 5 hores i 6 minuts, a les 11:00 UTC
Pronòstic vàlid del 20 a les 12 UTC al 21 a les 12 UTC
Vent 15 kt del Nord-Oest
Visibilitat: 3000 m
Escasses núvols a una alçada de 1500 ft, Cumulonimbus.
Núvols disperses a una alçada de 1600 ft
tempesta, pluja
Evolucionant progressivament
l' 20 a les 14 UTC al 20 a les 16 UTC
Visibilitat: 7000 m
Cel ennuvolat a una alçada de 1600 ft

TAF: WADL 201100Z 2012/2112 31015KT 3000 TSRA FEW015CB SCT016 BECMG 2014/2016 7000 NSW BKN016

Observacions i pronòstics meteorològics de més de 4000 aeroports (METAR i TAF).

Les estacions disponibles són els punts grocs i vermells al mapa.

Posi el ratolí al punt desitjat per veure el nom de l'estació.

Feu clic per veure les observacions i els pronòstics meteorològics.

Per canviar el mapa: feu clic els botons verds amb una creu de color negre per apropar; al botó verd amb un guió per allunyar la imatge; o en les fletxes verdes per a mapes adjacents.


METAR-TAF: